createdAt,value
2022-10-14T00:02:10.882Z,46.05
2022-10-14T00:04:56.453Z,48.95
2022-10-14T00:07:41.414Z,48.33
2022-10-14T00:10:26.778Z,48.60
2022-10-14T00:13:11.732Z,49.00
2022-10-14T00:15:56.956Z,50.65
2022-10-14T00:18:42.370Z,48.78
2022-10-14T00:21:28.672Z,51.45
2022-10-14T00:24:14.960Z,51.58
2022-10-14T00:26:59.881Z,52.17
2022-10-14T00:29:44.764Z,52.25
2022-10-14T00:32:30.339Z,53.10
2022-10-14T00:35:15.644Z,54.13
2022-10-14T00:38:00.763Z,56.30
2022-10-14T00:40:45.731Z,55.67
2022-10-14T00:43:56.191Z,59.08
2022-10-14T00:46:49.653Z,58.58
2022-10-14T00:49:39.268Z,59.35
2022-10-14T00:52:24.982Z,57.53
2022-10-14T00:55:18.615Z,60.90
2022-10-14T00:58:03.792Z,59.85
2022-10-14T01:00:48.979Z,59.55
2022-10-14T01:03:34.942Z,60.72
2022-10-14T01:06:45.099Z,59.22
2022-10-14T01:09:36.062Z,58.75
2022-10-14T01:12:33.377Z,60.78
2022-10-14T01:15:33.969Z,61.30
2022-10-14T01:18:19.229Z,61.78
2022-10-14T01:21:17.585Z,65.85
2022-10-14T01:24:40.101Z,65.53
2022-10-14T01:27:32.780Z,64.35
2022-10-14T01:30:25.235Z,63.38
2022-10-14T01:33:20.239Z,65.00
2022-10-14T01:36:13.618Z,59.50
2022-10-14T01:39:07.265Z,61.50
2022-10-14T01:42:17.084Z,64.50
2022-10-14T01:45:12.285Z,63.25
2022-10-14T01:48:00.174Z,61.38
2022-10-14T01:50:48.019Z,60.95
2022-10-14T01:53:38.458Z,61.92
2022-10-14T01:56:24.492Z,60.50
2022-10-14T01:59:12.413Z,59.78
2022-10-14T02:01:57.489Z,57.35
2022-10-14T02:04:42.779Z,55.63
2022-10-14T02:07:42.308Z,54.83
2022-10-14T02:10:50.941Z,55.33
2022-10-14T02:13:53.688Z,53.90
2022-10-14T02:16:48.033Z,54.20
2022-10-14T02:19:57.686Z,55.38
2022-10-14T02:22:48.201Z,54.17
2022-10-14T02:25:39.265Z,54.67
2022-10-14T02:28:27.514Z,56.40
2022-10-14T02:31:16.764Z,54.83
2022-10-14T02:34:07.152Z,53.72
2022-10-14T02:36:54.453Z,53.75
2022-10-14T02:39:44.132Z,53.20
2022-10-14T02:42:29.403Z,53.10
2022-10-14T02:45:14.565Z,51.38
2022-10-14T02:47:59.498Z,52.55
2022-10-14T02:50:44.470Z,53.17
2022-10-14T02:53:29.556Z,53.72
2022-10-14T02:56:14.645Z,52.67
2022-10-14T02:58:59.713Z,53.55
2022-10-14T03:01:44.719Z,53.70
2022-10-14T03:04:29.623Z,54.88
2022-10-14T03:07:14.628Z,53.97
2022-10-14T03:09:59.531Z,54.38
2022-10-14T03:12:45.105Z,56.45
2022-10-14T03:15:30.376Z,54.25
2022-10-14T03:18:15.891Z,55.78
2022-10-14T03:21:01.060Z,53.00
2022-10-14T03:23:46.452Z,50.92
2022-10-14T03:26:31.466Z,52.70
2022-10-14T03:29:16.564Z,53.20
2022-10-14T03:32:03.019Z,54.25
2022-10-14T03:34:47.967Z,53.30
2022-10-14T03:37:32.806Z,52.33
2022-10-14T03:40:17.804Z,52.40
2022-10-14T03:43:02.686Z,52.17
2022-10-14T03:45:47.760Z,53.15
2022-10-14T03:48:33.207Z,52.92
2022-10-14T03:51:18.265Z,52.58
2022-10-14T03:54:03.203Z,53.80
2022-10-14T03:56:48.604Z,55.78
2022-10-14T03:59:33.657Z,52.90
2022-10-14T04:02:18.793Z,53.00
2022-10-14T04:05:04.340Z,55.33
2022-10-14T04:07:49.544Z,52.75
2022-10-14T04:10:34.433Z,52.58
2022-10-14T04:13:20.105Z,52.72
2022-10-14T04:16:06.710Z,55.83
2022-10-14T04:18:51.585Z,60.25
2022-10-14T04:21:36.535Z,60.50
2022-10-14T04:24:21.482Z,61.63
2022-10-14T04:27:06.378Z,60.00
2022-10-14T04:29:52.298Z,60.55
2022-10-14T04:32:37.572Z,65.63
2022-10-14T04:35:22.772Z,63.08
2022-10-14T04:38:08.058Z,60.88
2022-10-14T04:40:53.299Z,60.47
2022-10-14T04:43:38.812Z,62.95
2022-10-14T04:46:23.839Z,63.30
2022-10-14T04:49:09.660Z,63.22
2022-10-14T04:51:54.759Z,65.15
2022-10-14T04:54:39.838Z,64.30
2022-10-14T04:57:24.869Z,61.78
2022-10-14T05:00:12.031Z,70.82
2022-10-14T05:02:57.198Z,68.25
2022-10-14T05:05:42.222Z,66.03
2022-10-14T05:08:27.073Z,68.55
2022-10-14T05:11:12.121Z,73.57
2022-10-14T05:13:57.398Z,66.07
2022-10-14T05:16:42.701Z,62.53
2022-10-14T05:19:28.120Z,73.15
2022-10-14T05:22:13.071Z,69.68
2022-10-14T05:25:00.098Z,70.65
2022-10-14T05:27:45.262Z,64.55
2022-10-14T05:30:34.520Z,65.60
2022-10-14T05:33:20.156Z,66.30
2022-10-14T05:36:05.627Z,63.90
2022-10-14T05:38:50.968Z,66.53
2022-10-14T05:41:35.736Z,65.63
2022-10-14T05:44:21.126Z,71.75
2022-10-14T05:47:06.089Z,73.70
2022-10-14T05:49:51.354Z,69.47
2022-10-14T05:52:36.514Z,70.10
2022-10-14T05:55:21.665Z,68.18
2022-10-14T05:58:07.736Z,68.43
2022-10-14T06:00:55.832Z,72.15
2022-10-14T06:03:41.318Z,71.32
2022-10-14T06:06:29.074Z,66.95
2022-10-14T06:09:14.572Z,67.10
2022-10-14T06:11:59.633Z,67.72
2022-10-14T06:14:45.326Z,69.40
2022-10-14T06:17:30.317Z,65.75
2022-10-14T06:20:15.423Z,72.45
2022-10-14T06:23:01.733Z,97.70
2022-10-14T06:25:47.142Z,72.57
2022-10-14T06:28:32.993Z,68.70
2022-10-14T06:31:18.149Z,68.03
2022-10-14T06:34:05.937Z,71.60
2022-10-14T06:36:51.120Z,68.63
2022-10-14T06:39:36.243Z,67.63
2022-10-14T06:42:21.246Z,68.78
2022-10-14T06:45:07.049Z,65.00
2022-10-14T06:47:52.359Z,62.78
2022-10-14T06:50:37.459Z,58.92
2022-10-14T06:53:22.984Z,61.03
2022-10-14T06:56:09.261Z,56.47
2022-10-14T06:58:55.263Z,59.40
2022-10-14T07:01:40.460Z,60.20
2022-10-14T07:04:25.689Z,57.88
2022-10-14T07:07:11.000Z,57.67
2022-10-14T07:09:56.082Z,71.13
2022-10-14T07:12:41.390Z,60.17
2022-10-14T07:15:26.909Z,62.20
2022-10-14T07:18:12.232Z,58.28
2022-10-14T07:21:01.851Z,56.55
2022-10-14T07:23:47.479Z,55.33
2022-10-14T07:26:33.181Z,56.88
2022-10-14T07:29:18.383Z,53.60
2022-10-14T07:32:03.936Z,53.20
2022-10-14T07:34:49.358Z,51.63
2022-10-14T07:37:34.918Z,53.00
2022-10-14T07:40:20.560Z,54.20
2022-10-14T07:43:05.767Z,51.53
2022-10-14T07:45:51.403Z,50.75
2022-10-14T07:48:52.537Z,48.97
2022-10-14T07:51:42.387Z,44.85
2022-10-14T07:54:27.869Z,41.92
2022-10-14T07:57:12.963Z,39.72
2022-10-14T07:59:58.608Z,37.80
2022-10-14T08:02:43.996Z,37.03
2022-10-14T08:05:44.355Z,37.10
2022-10-14T08:08:30.239Z,32.38
2022-10-14T08:11:19.810Z,30.75
2022-10-14T08:14:05.990Z,28.92
2022-10-14T08:16:51.148Z,28.08
2022-10-14T08:19:36.588Z,28.40
2022-10-14T08:22:21.993Z,26.48
2022-10-14T08:25:08.116Z,23.33
2022-10-14T08:27:54.524Z,22.35
2022-10-14T08:30:43.062Z,21.58
2022-10-14T08:33:28.365Z,21.48
2022-10-14T08:36:13.603Z,20.80
2022-10-14T08:38:59.493Z,21.40
2022-10-14T08:42:23.396Z,20.98
2022-10-14T08:45:15.014Z,20.92
2022-10-14T08:48:02.855Z,19.60
2022-10-14T08:50:55.945Z,16.55
2022-10-14T08:53:48.363Z,17.20
2022-10-14T08:56:36.601Z,16.77
2022-10-14T08:59:25.134Z,16.75
2022-10-14T09:02:30.789Z,15.70
2022-10-14T09:05:24.634Z,13.93
2022-10-14T09:08:15.615Z,17.52
2022-10-14T09:11:01.249Z,14.90
2022-10-14T09:14:01.051Z,13.68
2022-10-14T09:16:51.864Z,12.90
2022-10-14T09:19:50.374Z,13.60
2022-10-14T09:22:35.903Z,13.63
2022-10-14T09:25:21.348Z,11.70
2022-10-14T09:28:06.315Z,12.00
2022-10-14T09:30:54.357Z,12.52
2022-10-14T09:33:42.431Z,12.63
2022-10-14T09:36:28.062Z,9.35
2022-10-14T09:39:14.157Z,8.73
2022-10-14T09:42:00.515Z,9.90
2022-10-14T09:48:00.648Z,9.80
2022-10-14T09:50:55.399Z,10.52
2022-10-14T09:53:45.430Z,10.90
2022-10-14T09:56:40.726Z,10.80
2022-10-14T09:59:28.425Z,11.05
2022-10-14T10:02:37.227Z,11.00
2022-10-14T10:05:32.558Z,10.55
2022-10-14T10:08:18.858Z,9.55
2022-10-14T10:11:11.436Z,10.60
2022-10-14T10:13:58.109Z,10.38
2022-10-14T10:16:43.803Z,10.77
2022-10-14T10:19:33.539Z,9.68
2022-10-14T10:22:21.857Z,9.68
2022-10-14T10:25:10.209Z,7.40
2022-10-14T10:27:59.800Z,7.05
2022-10-14T10:31:12.066Z,6.32
2022-10-14T10:34:10.297Z,6.45
2022-10-14T10:37:16.887Z,5.75
2022-10-14T10:40:08.023Z,5.38
2022-10-14T10:43:10.677Z,4.93
2022-10-14T10:46:30.894Z,3.85
2022-10-14T10:49:23.479Z,4.95
2022-10-14T10:52:43.180Z,4.32
2022-10-14T10:55:51.674Z,4.25
2022-10-14T10:59:00.116Z,4.03
2022-10-14T11:02:13.242Z,3.88
2022-10-14T11:05:46.560Z,4.10
2022-10-14T11:08:55.449Z,3.63
2022-10-14T11:12:15.415Z,4.20
2022-10-14T11:15:33.512Z,4.28
2022-10-14T11:18:34.043Z,4.03
2022-10-14T11:21:37.434Z,3.72
2022-10-14T11:24:36.846Z,3.75
2022-10-14T11:27:41.303Z,4.00
2022-10-14T11:30:48.294Z,3.42
2022-10-14T11:33:57.155Z,2.65
2022-10-14T11:37:12.970Z,2.22
2022-10-14T11:40:06.591Z,2.00
2022-10-14T11:43:12.285Z,2.03
2022-10-14T11:46:10.802Z,1.90
2022-10-14T11:49:12.957Z,2.00
2022-10-14T11:52:08.970Z,1.73
2022-10-14T11:55:01.730Z,2.10
2022-10-14T11:57:59.091Z,1.95
2022-10-14T12:00:49.329Z,1.55
2022-10-14T12:04:10.640Z,1.90
2022-10-14T12:07:15.461Z,2.03
2022-10-14T12:10:06.676Z,1.73
2022-10-14T12:12:54.536Z,1.50
2022-10-14T12:15:42.869Z,1.60
2022-10-14T12:18:30.989Z,1.50
2022-10-14T12:21:28.242Z,1.40
2022-10-14T12:24:20.564Z,1.50
2022-10-14T12:27:09.798Z,1.40
2022-10-14T12:29:55.655Z,3.10
2022-10-14T12:33:00.703Z,1.40
2022-10-14T12:35:56.813Z,1.70
2022-10-14T12:38:42.280Z,1.60
2022-10-14T12:41:40.281Z,1.50
2022-10-14T12:44:35.314Z,1.50
2022-10-14T12:47:27.186Z,1.40
2022-10-14T12:50:15.200Z,1.20
2022-10-14T12:53:02.971Z,1.30
2022-10-14T12:55:53.519Z,1.40
2022-10-14T12:58:42.631Z,1.08
2022-10-14T13:01:31.094Z,1.35
2022-10-14T13:04:20.253Z,1.17
2022-10-14T13:07:39.039Z,1.15
2022-10-14T13:10:47.734Z,1.05
2022-10-14T13:13:38.951Z,1.23
2022-10-14T13:16:23.730Z,1.30
2022-10-14T13:19:34.738Z,1.30
2022-10-14T13:22:33.156Z,1.27
2022-10-14T13:25:20.735Z,1.40
2022-10-14T13:28:31.964Z,1.23
2022-10-14T13:31:38.401Z,1.30
2022-10-14T13:34:34.715Z,1.40
2022-10-14T13:37:32.063Z,1.10
2022-10-14T13:40:24.308Z,1.10
2022-10-14T13:43:19.980Z,1.45
2022-10-14T13:46:34.640Z,1.50
2022-10-14T13:49:37.535Z,1.50
2022-10-14T13:52:26.492Z,1.52
2022-10-14T13:55:21.026Z,1.80
2022-10-14T13:58:17.988Z,1.80
2022-10-14T14:01:05.604Z,1.75
2022-10-14T14:03:53.630Z,2.28
2022-10-14T14:07:02.993Z,2.30
2022-10-14T14:09:52.300Z,2.10
2022-10-14T14:12:42.297Z,2.35
2022-10-14T14:15:29.362Z,2.28
2022-10-14T14:18:43.174Z,2.20
2022-10-14T14:21:38.477Z,2.40
2022-10-14T14:24:25.193Z,2.35
2022-10-14T14:27:22.399Z,2.60
2022-10-14T14:30:23.270Z,2.22
2022-10-14T14:33:13.622Z,2.42
2022-10-14T14:36:01.712Z,2.47
2022-10-14T14:39:03.294Z,2.88
2022-10-14T14:41:53.244Z,2.45
2022-10-14T14:44:39.542Z,2.90
2022-10-14T14:47:27.343Z,3.30
2022-10-14T14:50:31.941Z,3.40
2022-10-14T14:53:24.204Z,3.30
2022-10-14T14:56:16.242Z,3.00
2022-10-14T14:59:21.236Z,3.55
2022-10-14T15:02:18.420Z,4.00
2022-10-14T15:05:09.330Z,4.45
2022-10-14T15:07:54.428Z,4.55
2022-10-14T15:10:47.344Z,4.47
2022-10-14T15:13:38.721Z,5.40
2022-10-14T15:16:51.951Z,5.45
2022-10-14T15:19:38.642Z,6.03
2022-10-14T15:22:30.293Z,7.10
2022-10-14T15:25:32.156Z,7.28
2022-10-14T15:28:31.658Z,6.85
2022-10-14T15:31:16.951Z,7.18
2022-10-14T15:34:03.826Z,7.30
2022-10-14T15:36:51.191Z,8.00
2022-10-14T15:39:36.510Z,8.00
2022-10-14T15:42:21.896Z,8.10
2022-10-14T15:45:07.850Z,8.73
2022-10-14T15:50:44.727Z,9.63
2022-10-14T15:53:29.809Z,8.73
2022-10-14T15:56:15.253Z,9.20
2022-10-14T15:59:00.860Z,11.05
2022-10-14T16:01:47.326Z,10.52
2022-10-14T16:04:32.635Z,10.07
2022-10-14T16:07:17.871Z,10.35
2022-10-14T16:10:03.581Z,10.30
2022-10-14T16:12:49.440Z,10.60
2022-10-14T16:15:43.514Z,12.55
2022-10-14T16:18:28.194Z,12.52
2022-10-14T16:21:15.929Z,11.88
2022-10-14T16:24:02.219Z,11.63
2022-10-14T16:26:48.459Z,12.27
2022-10-14T16:29:33.413Z,12.13
2022-10-14T16:32:18.806Z,14.05
2022-10-14T16:35:05.917Z,13.07
2022-10-14T16:37:51.090Z,14.82
2022-10-14T16:40:36.969Z,14.68
2022-10-14T16:43:22.263Z,16.67
2022-10-14T16:46:10.434Z,15.15
2022-10-14T16:48:58.176Z,16.25
2022-10-14T16:51:44.823Z,15.02
2022-10-14T16:54:30.183Z,15.90
2022-10-14T16:57:15.659Z,15.50
2022-10-14T17:00:01.075Z,17.02
2022-10-14T17:02:46.399Z,21.10
2022-10-14T17:05:32.100Z,15.38
2022-10-14T17:08:18.417Z,16.15
2022-10-14T17:11:03.453Z,16.88
2022-10-14T17:13:53.109Z,16.52
2022-10-14T17:16:38.043Z,17.27
2022-10-14T17:19:22.963Z,17.20
2022-10-14T17:22:08.706Z,20.13
2022-10-14T17:24:53.807Z,17.50
2022-10-14T17:27:38.730Z,17.48
2022-10-14T17:30:24.179Z,18.48
2022-10-14T17:33:09.551Z,19.70
2022-10-14T17:35:58.091Z,18.88
2022-10-14T17:38:43.108Z,18.77
2022-10-14T17:41:33.822Z,17.85
2022-10-14T17:44:19.484Z,18.73
2022-10-14T17:47:05.183Z,18.20
2022-10-14T17:49:50.186Z,17.48
2022-10-14T17:52:35.224Z,18.95
2022-10-14T17:55:20.533Z,17.65
2022-10-14T17:58:08.473Z,17.88
2022-10-14T18:00:53.580Z,17.73
2022-10-14T18:03:41.761Z,16.38
2022-10-14T18:06:32.433Z,18.02
2022-10-14T18:09:18.674Z,18.15
2022-10-14T18:12:08.740Z,17.70
2022-10-14T18:14:55.188Z,18.33
2022-10-14T18:17:44.204Z,17.48
2022-10-14T18:20:29.141Z,19.48
2022-10-14T18:23:14.803Z,19.42
2022-10-14T18:26:06.272Z,18.98
2022-10-14T18:28:56.412Z,18.33
2022-10-14T18:31:41.920Z,20.20
2022-10-14T18:34:27.301Z,19.98
2022-10-14T18:37:12.686Z,19.38
2022-10-14T18:39:57.866Z,18.55
2022-10-14T18:42:43.188Z,19.80
2022-10-14T18:45:28.170Z,20.27
2022-10-14T18:48:13.496Z,18.30
2022-10-14T18:51:00.007Z,16.90
2022-10-14T18:53:47.876Z,16.40
2022-10-14T18:56:35.678Z,14.82
2022-10-14T18:59:22.978Z,13.65
2022-10-14T19:02:12.556Z,13.18
2022-10-14T19:04:57.505Z,11.50
2022-10-14T19:07:42.915Z,11.57
2022-10-14T19:10:28.119Z,13.38
2022-10-14T19:13:13.254Z,12.90
2022-10-14T19:16:06.529Z,11.95
2022-10-14T19:18:56.509Z,12.55
2022-10-14T19:21:42.276Z,12.10
2022-10-14T19:24:27.263Z,11.75
2022-10-14T19:27:12.165Z,11.32
2022-10-14T19:29:57.621Z,11.00
2022-10-14T19:32:42.647Z,10.27
2022-10-14T19:35:27.634Z,9.80
2022-10-14T19:38:13.567Z,9.90
2022-10-14T19:41:03.936Z,9.35
2022-10-14T19:43:49.190Z,9.32
2022-10-14T19:46:34.669Z,8.80
2022-10-14T19:49:20.120Z,9.20
2022-10-14T19:52:05.828Z,9.38
2022-10-14T19:54:51.347Z,9.43
2022-10-14T19:57:36.614Z,9.77
2022-10-14T20:00:22.430Z,9.88
2022-10-14T20:03:08.021Z,9.80
2022-10-14T20:06:00.106Z,10.07
2022-10-14T20:08:45.142Z,9.68
2022-10-14T20:11:30.517Z,10.55
2022-10-14T20:14:15.901Z,10.18
2022-10-14T20:17:00.856Z,10.57
2022-10-14T20:19:45.938Z,10.85
2022-10-14T20:22:34.049Z,11.95
2022-10-14T20:25:18.908Z,11.68
2022-10-14T20:28:04.292Z,12.07
2022-10-14T20:30:49.632Z,13.13
2022-10-14T20:33:34.941Z,14.10
2022-10-14T20:36:21.907Z,13.45
2022-10-14T20:39:10.190Z,14.48
2022-10-14T20:41:55.144Z,14.40
2022-10-14T20:44:40.619Z,15.80
2022-10-14T20:47:25.790Z,15.23
2022-10-14T20:50:11.128Z,15.10
2022-10-14T20:52:56.372Z,16.38
2022-10-14T20:55:41.226Z,17.50
2022-10-14T20:58:26.653Z,16.70
2022-10-14T21:01:16.212Z,16.38
2022-10-14T21:04:04.303Z,15.85
2022-10-14T21:06:49.211Z,16.00
2022-10-14T21:09:34.141Z,16.13
2022-10-14T21:12:19.606Z,18.17
2022-10-14T21:15:05.281Z,18.95
2022-10-14T21:17:50.654Z,17.08
2022-10-14T21:20:35.604Z,18.15
2022-10-14T21:23:20.951Z,17.10
2022-10-14T21:26:06.077Z,17.35
2022-10-14T21:28:51.635Z,18.98
2022-10-14T21:31:36.733Z,19.10
2022-10-14T21:34:21.932Z,18.65
2022-10-14T21:37:07.117Z,19.10
2022-10-14T21:39:52.035Z,27.02
2022-10-14T21:42:37.301Z,20.38
2022-10-14T21:45:22.665Z,18.80
2022-10-14T21:48:07.741Z,19.42
2022-10-14T21:51:03.556Z,21.00
2022-10-14T21:53:48.552Z,20.33
2022-10-14T21:56:33.530Z,20.88
2022-10-14T21:59:18.482Z,22.65
2022-10-14T22:02:09.290Z,19.02
2022-10-14T22:04:54.429Z,20.05
2022-10-14T22:07:39.530Z,21.23
2022-10-14T22:10:24.529Z,21.23
2022-10-14T22:13:09.543Z,21.70
2022-10-14T22:15:54.942Z,21.02
2022-10-14T22:18:40.428Z,19.02
2022-10-14T22:21:27.312Z,22.73
2022-10-14T22:24:13.396Z,22.05
2022-10-14T22:26:58.507Z,21.80
2022-10-14T22:29:43.527Z,22.35
2022-10-14T22:32:28.743Z,21.00
2022-10-14T22:35:13.698Z,24.48
2022-10-14T22:37:58.742Z,23.98
2022-10-14T22:40:43.539Z,21.73
2022-10-14T22:43:28.539Z,20.10
2022-10-14T22:46:15.152Z,27.80
2022-10-14T22:49:00.626Z,16.70
2022-10-14T22:51:45.911Z,13.73
2022-10-14T22:54:31.096Z,15.98
2022-10-14T22:57:16.045Z,19.15
2022-10-14T23:00:03.834Z,19.67
2022-10-14T23:02:50.106Z,20.05
2022-10-14T23:05:35.321Z,18.58
2022-10-14T23:08:20.060Z,21.80
2022-10-14T23:11:06.565Z,20.38
2022-10-14T23:13:51.963Z,22.35
2022-10-14T23:16:38.970Z,20.20
2022-10-14T23:19:24.015Z,14.65
2022-10-14T23:22:09.451Z,24.00
2022-10-14T23:24:54.282Z,16.92
2022-10-14T23:27:39.723Z,17.45
2022-10-14T23:30:25.225Z,26.55
2022-10-14T23:33:10.559Z,25.30
2022-10-14T23:35:55.484Z,25.35
2022-10-14T23:38:40.886Z,22.10
2022-10-14T23:41:25.895Z,24.00
2022-10-14T23:44:11.450Z,21.38
2022-10-14T23:46:56.861Z,25.40
2022-10-14T23:49:41.920Z,25.13
2022-10-14T23:52:26.941Z,21.83
2022-10-14T23:55:12.652Z,21.38
2022-10-14T23:57:57.822Z,20.73
